sensor_id;sensor_type;location;lat;lon;timestamp;temperature;humidity
21267;DHT22;10791;53.108;18.326;2023-06-26T00:01:36;17.30;99.90
21267;DHT22;10791;53.108;18.326;2023-06-26T00:06:43;17.20;99.90
21267;DHT22;10791;53.108;18.326;2023-06-26T00:11:46;17.10;99.90
21267;DHT22;10791;53.108;18.326;2023-06-26T00:16:50;17.10;99.90
21267;DHT22;10791;53.108;18.326;2023-06-26T00:21:53;17.00;99.90
21267;DHT22;10791;53.108;18.326;2023-06-26T00:26:56;16.90;99.90
21267;DHT22;10791;53.108;18.326;2023-06-26T00:32:00;16.80;99.90
21267;DHT22;10791;53.108;18.326;2023-06-26T00:37:04;16.80;99.90
21267;DHT22;10791;53.108;18.326;2023-06-26T00:42:08;16.80;99.90
21267;DHT22;10791;53.108;18.326;2023-06-26T00:47:14;16.80;99.90
21267;DHT22;10791;53.108;18.326;2023-06-26T00:52:18;16.80;99.90
21267;DHT22;10791;53.108;18.326;2023-06-26T00:57:22;16.70;99.90
21267;DHT22;10791;53.108;18.326;2023-06-26T01:02:25;16.70;99.90
21267;DHT22;10791;53.108;18.326;2023-06-26T01:07:33;16.60;99.90
21267;DHT22;10791;53.108;18.326;2023-06-26T01:12:40;16.60;99.90
21267;DHT22;10791;53.108;18.326;2023-06-26T01:17:44;16.50;99.90
21267;DHT22;10791;53.108;18.326;2023-06-26T01:23:02;16.40;99.90
21267;DHT22;10791;53.108;18.326;2023-06-26T01:28:07;16.30;99.90
21267;DHT22;10791;53.108;18.326;2023-06-26T01:33:14;16.20;99.90
21267;DHT22;10791;53.108;18.326;2023-06-26T01:38:19;16.10;99.90
21267;DHT22;10791;53.108;18.326;2023-06-26T01:49:09;15.90;99.90
21267;DHT22;10791;53.108;18.326;2023-06-26T01:54:18;15.80;99.90
21267;DHT22;10791;53.108;18.326;2023-06-26T01:59:22;15.70;99.90
21267;DHT22;10791;53.108;18.326;2023-06-26T02:04:27;15.70;99.90
21267;DHT22;10791;53.108;18.326;2023-06-26T02:09:30;15.70;99.90
21267;DHT22;10791;53.108;18.326;2023-06-26T02:14:33;15.50;99.90
21267;DHT22;10791;53.108;18.326;2023-06-26T02:19:37;15.50;99.90
21267;DHT22;10791;53.108;18.326;2023-06-26T02:24:51;15.40;99.90
21267;DHT22;10791;53.108;18.326;2023-06-26T02:29:54;15.30;99.90
21267;DHT22;10791;53.108;18.326;2023-06-26T02:34:57;15.20;99.90
21267;DHT22;10791;53.108;18.326;2023-06-26T02:40:01;15.10;99.90
21267;DHT22;10791;53.108;18.326;2023-06-26T02:45:04;15.10;99.90
21267;DHT22;10791;53.108;18.326;2023-06-26T02:50:08;15.00;99.90
21267;DHT22;10791;53.108;18.326;2023-06-26T02:55:11;15.00;99.90
21267;DHT22;10791;53.108;18.326;2023-06-26T03:00:15;14.90;99.90
21267;DHT22;10791;53.108;18.326;2023-06-26T03:05:19;14.90;99.90
21267;DHT22;10791;53.108;18.326;2023-06-26T03:10:22;14.90;99.90
21267;DHT22;10791;53.108;18.326;2023-06-26T03:15:26;15.00;99.90
21267;DHT22;10791;53.108;18.326;2023-06-26T03:20:29;15.00;99.90
21267;DHT22;10791;53.108;18.326;2023-06-26T03:25:32;15.10;99.90
21267;DHT22;10791;53.108;18.326;2023-06-26T03:30:36;15.20;99.90
21267;DHT22;10791;53.108;18.326;2023-06-26T03:35:39;15.20;99.90
21267;DHT22;10791;53.108;18.326;2023-06-26T03:40:43;15.20;99.90
21267;DHT22;10791;53.108;18.326;2023-06-26T03:45:46;15.30;99.90
21267;DHT22;10791;53.108;18.326;2023-06-26T03:50:50;15.50;99.90
21267;DHT22;10791;53.108;18.326;2023-06-26T03:55:54;15.70;99.90
21267;DHT22;10791;53.108;18.326;2023-06-26T04:00:57;15.90;99.90
21267;DHT22;10791;53.108;18.326;2023-06-26T04:06:01;16.10;99.90
21267;DHT22;10791;53.108;18.326;2023-06-26T04:11:04;16.60;99.90
21267;DHT22;10791;53.108;18.326;2023-06-26T04:16:07;17.20;99.90
21267;DHT22;10791;53.108;18.326;2023-06-26T04:21:12;18.20;99.90
21267;DHT22;10791;53.108;18.326;2023-06-26T04:26:16;18.80;99.90
21267;DHT22;10791;53.108;18.326;2023-06-26T04:31:20;19.70;99.90
21267;DHT22;10791;53.108;18.326;2023-06-26T04:36:24;21.00;99.90
21267;DHT22;10791;53.108;18.326;2023-06-26T04:41:31;22.30;99.90
21267;DHT22;10791;53.108;18.326;2023-06-26T04:46:35;24.20;99.90
21267;DHT22;10791;53.108;18.326;2023-06-26T04:51:38;25.10;99.90
21267;DHT22;10791;53.108;18.326;2023-06-26T04:56:45;26.00;96.60
21267;DHT22;10791;53.108;18.326;2023-06-26T05:01:50;26.50;92.10
21267;DHT22;10791;53.108;18.326;2023-06-26T05:06:53;27.40;90.90
21267;DHT22;10791;53.108;18.326;2023-06-26T05:11:57;27.00;87.90
21267;DHT22;10791;53.108;18.326;2023-06-26T05:17:00;25.60;91.20
21267;DHT22;10791;53.108;18.326;2023-06-26T05:22:04;25.10;93.00
21267;DHT22;10791;53.108;18.326;2023-06-26T05:27:11;24.50;94.50
21267;DHT22;10791;53.108;18.326;2023-06-26T05:32:22;23.70;96.30
21267;DHT22;10791;53.108;18.326;2023-06-26T05:37:26;23.20;97.70
21267;DHT22;10791;53.108;18.326;2023-06-26T05:42:31;22.80;99.90
21267;DHT22;10791;53.108;18.326;2023-06-26T05:47:35;22.70;99.90
21267;DHT22;10791;53.108;18.326;2023-06-26T05:52:39;22.40;99.90
21267;DHT22;10791;53.108;18.326;2023-06-26T05:57:43;22.50;99.90
21267;DHT22;10791;53.108;18.326;2023-06-26T06:02:48;22.20;99.90
21267;DHT22;10791;53.108;18.326;2023-06-26T06:07:52;22.00;99.90
21267;DHT22;10791;53.108;18.326;2023-06-26T06:12:56;21.90;99.90
21267;DHT22;10791;53.108;18.326;2023-06-26T06:17:59;21.90;99.90
21267;DHT22;10791;53.108;18.326;2023-06-26T06:23:03;22.20;99.90
21267;DHT22;10791;53.108;18.326;2023-06-26T06:28:06;22.40;99.90
21267;DHT22;10791;53.108;18.326;2023-06-26T06:33:10;22.60;99.90
21267;DHT22;10791;53.108;18.326;2023-06-26T06:38:13;22.90;99.90
21267;DHT22;10791;53.108;18.326;2023-06-26T06:43:17;23.30;99.90
21267;DHT22;10791;53.108;18.326;2023-06-26T06:48:20;23.70;99.90
21267;DHT22;10791;53.108;18.326;2023-06-26T06:53:24;24.00;99.90
21267;DHT22;10791;53.108;18.326;2023-06-26T06:58:27;23.90;99.90
21267;DHT22;10791;53.108;18.326;2023-06-26T07:03:31;23.80;99.90
21267;DHT22;10791;53.108;18.326;2023-06-26T07:08:34;23.70;99.90
21267;DHT22;10791;53.108;18.326;2023-06-26T07:13:38;23.90;99.90
21267;DHT22;10791;53.108;18.326;2023-06-26T07:18:42;24.10;99.90
21267;DHT22;10791;53.108;18.326;2023-06-26T07:23:46;24.40;99.90
21267;DHT22;10791;53.108;18.326;2023-06-26T07:28:50;24.60;98.50
21267;DHT22;10791;53.108;18.326;2023-06-26T07:33:53;24.70;98.00
21267;DHT22;10791;53.108;18.326;2023-06-26T07:38:56;25.10;96.70
21267;DHT22;10791;53.108;18.326;2023-06-26T07:43:59;25.30;96.70
21267;DHT22;10791;53.108;18.326;2023-06-26T07:49:04;25.20;95.80
21267;DHT22;10791;53.108;18.326;2023-06-26T07:54:07;25.30;95.50
21267;DHT22;10791;53.108;18.326;2023-06-26T07:59:10;25.40;95.50
21267;DHT22;10791;53.108;18.326;2023-06-26T08:04:14;25.60;94.80
21267;DHT22;10791;53.108;18.326;2023-06-26T08:09:19;25.90;94.10
21267;DHT22;10791;53.108;18.326;2023-06-26T08:14:23;26.00;93.80
21267;DHT22;10791;53.108;18.326;2023-06-26T08:19:26;26.20;93.10
21267;DHT22;10791;53.108;18.326;2023-06-26T08:24:30;26.10;92.90
21267;DHT22;10791;53.108;18.326;2023-06-26T08:29:33;26.10;90.60
21267;DHT22;10791;53.108;18.326;2023-06-26T08:34:37;26.30;90.30
21267;DHT22;10791;53.108;18.326;2023-06-26T08:39:40;26.50;85.40
21267;DHT22;10791;53.108;18.326;2023-06-26T08:44:44;26.80;82.60
21267;DHT22;10791;53.108;18.326;2023-06-26T08:50:12;27.10;86.80
21267;DHT22;10791;53.108;18.326;2023-06-26T08:55:16;27.30;82.10
21267;DHT22;10791;53.108;18.326;2023-06-26T09:00:21;27.00;80.30
21267;DHT22;10791;53.108;18.326;2023-06-26T09:05:26;27.00;81.90
21267;DHT22;10791;53.108;18.326;2023-06-26T09:10:31;27.40;80.20
21267;DHT22;10791;53.108;18.326;2023-06-26T09:15:39;27.80;76.40
21267;DHT22;10791;53.108;18.326;2023-06-26T09:20:45;28.10;74.80
21267;DHT22;10791;53.108;18.326;2023-06-26T09:25:48;28.10;74.60
21267;DHT22;10791;53.108;18.326;2023-06-26T09:30:54;28.10;72.00
21267;DHT22;10791;53.108;18.326;2023-06-26T09:35:57;28.30;70.40
21267;DHT22;10791;53.108;18.326;2023-06-26T09:41:02;28.40;69.40
21267;DHT22;10791;53.108;18.326;2023-06-26T09:46:06;28.60;70.90
21267;DHT22;10791;53.108;18.326;2023-06-26T09:51:10;28.60;69.80
21267;DHT22;10791;53.108;18.326;2023-06-26T09:56:17;28.10;69.60
21267;DHT22;10791;53.108;18.326;2023-06-26T10:01:21;27.40;69.70
21267;DHT22;10791;53.108;18.326;2023-06-26T10:06:28;27.10;69.70
21267;DHT22;10791;53.108;18.326;2023-06-26T10:11:40;26.90;70.10
21267;DHT22;10791;53.108;18.326;2023-06-26T10:16:46;27.30;70.90
21267;DHT22;10791;53.108;18.326;2023-06-26T10:21:54;27.90;71.40
21267;DHT22;10791;53.108;18.326;2023-06-26T10:27:20;28.30;68.10
21267;DHT22;10791;53.108;18.326;2023-06-26T10:32:26;28.40;65.30
21267;DHT22;10791;53.108;18.326;2023-06-26T10:37:49;28.40;66.40
21267;DHT22;10791;53.108;18.326;2023-06-26T10:43:06;28.70;67.40
21267;DHT22;10791;53.108;18.326;2023-06-26T10:48:14;29.00;68.50
21267;DHT22;10791;53.108;18.326;2023-06-26T10:53:22;29.50;63.60
21267;DHT22;10791;53.108;18.326;2023-06-26T11:03:46;29.40;63.00
21267;DHT22;10791;53.108;18.326;2023-06-26T11:08:59;29.40;65.20
21267;DHT22;10791;53.108;18.326;2023-06-26T11:14:04;29.80;61.80
21267;DHT22;10791;53.108;18.326;2023-06-26T11:19:09;29.80;60.30
21267;DHT22;10791;53.108;18.326;2023-06-26T11:24:14;29.50;59.50
21267;DHT22;10791;53.108;18.326;2023-06-26T11:29:17;29.30;57.20
21267;DHT22;10791;53.108;18.326;2023-06-26T11:34:21;29.60;59.60
21267;DHT22;10791;53.108;18.326;2023-06-26T11:39:25;30.00;55.60
21267;DHT22;10791;53.108;18.326;2023-06-26T11:44:30;30.30;56.50
21267;DHT22;10791;53.108;18.326;2023-06-26T11:49:34;30.40;55.50
21267;DHT22;10791;53.108;18.326;2023-06-26T11:54:37;30.40;55.50
21267;DHT22;10791;53.108;18.326;2023-06-26T11:59:42;30.30;53.80
21267;DHT22;10791;53.108;18.326;2023-06-26T12:04:45;30.40;53.20
21267;DHT22;10791;53.108;18.326;2023-06-26T12:09:49;30.70;54.20
21267;DHT22;10791;53.108;18.326;2023-06-26T12:14:53;30.90;52.70
21267;DHT22;10791;53.108;18.326;2023-06-26T12:19:57;31.10;51.60
21267;DHT22;10791;53.108;18.326;2023-06-26T12:25:00;31.30;51.60
21267;DHT22;10791;53.108;18.326;2023-06-26T12:30:10;31.50;54.50
21267;DHT22;10791;53.108;18.326;2023-06-26T12:35:14;31.70;51.50
21267;DHT22;10791;53.108;18.326;2023-06-26T12:40:19;31.80;51.90
21267;DHT22;10791;53.108;18.326;2023-06-26T12:45:26;32.00;51.90
21267;DHT22;10791;53.108;18.326;2023-06-26T12:50:46;32.10;50.60
21267;DHT22;10791;53.108;18.326;2023-06-26T12:55:50;32.10;51.20
21267;DHT22;10791;53.108;18.326;2023-06-26T13:00:54;32.10;50.90
21267;DHT22;10791;53.108;18.326;2023-06-26T13:06:00;32.10;49.70
21267;DHT22;10791;53.108;18.326;2023-06-26T13:11:04;32.10;51.60
21267;DHT22;10791;53.108;18.326;2023-06-26T13:16:07;32.00;53.10
21267;DHT22;10791;53.108;18.326;2023-06-26T13:21:10;32.20;52.90
21267;DHT22;10791;53.108;18.326;2023-06-26T13:26:14;32.50;53.00
21267;DHT22;10791;53.108;18.326;2023-06-26T13:31:37;32.40;50.50
21267;DHT22;10791;53.108;18.326;2023-06-26T13:36:42;32.30;52.20
21267;DHT22;10791;53.108;18.326;2023-06-26T13:41:46;32.50;53.40
21267;DHT22;10791;53.108;18.326;2023-06-26T13:46:50;32.70;52.10
21267;DHT22;10791;53.108;18.326;2023-06-26T13:51:53;32.70;52.50
21267;DHT22;10791;53.108;18.326;2023-06-26T13:56:56;32.60;51.10
21267;DHT22;10791;53.108;18.326;2023-06-26T14:02:00;32.80;50.20
21267;DHT22;10791;53.108;18.326;2023-06-26T14:07:04;32.80;51.30
21267;DHT22;10791;53.108;18.326;2023-06-26T14:12:08;32.80;51.20
21267;DHT22;10791;53.108;18.326;2023-06-26T14:17:12;32.90;51.10
21267;DHT22;10791;53.108;18.326;2023-06-26T14:22:19;32.70;49.80
21267;DHT22;10791;53.108;18.326;2023-06-26T14:27:22;32.60;50.40
21267;DHT22;10791;53.108;18.326;2023-06-26T14:32:26;32.70;51.00
21267;DHT22;10791;53.108;18.326;2023-06-26T14:37:30;32.90;52.80
21267;DHT22;10791;53.108;18.326;2023-06-26T14:42:33;33.20;51.50
21267;DHT22;10791;53.108;18.326;2023-06-26T14:47:38;33.70;48.30
21267;DHT22;10791;53.108;18.326;2023-06-26T14:52:43;33.70;47.20
21267;DHT22;10791;53.108;18.326;2023-06-26T14:57:46;33.50;47.80
21267;DHT22;10791;53.108;18.326;2023-06-26T15:02:50;32.80;48.50
21267;DHT22;10791;53.108;18.326;2023-06-26T15:08:00;33.40;50.00
21267;DHT22;10791;53.108;18.326;2023-06-26T15:13:04;34.30;50.60
21267;DHT22;10791;53.108;18.326;2023-06-26T15:18:08;35.10;47.20
21267;DHT22;10791;53.108;18.326;2023-06-26T15:23:12;35.30;47.70
21267;DHT22;10791;53.108;18.326;2023-06-26T15:28:15;35.80;46.70
21267;DHT22;10791;53.108;18.326;2023-06-26T15:33:19;36.30;45.20
21267;DHT22;10791;53.108;18.326;2023-06-26T15:38:22;36.90;46.50
21267;DHT22;10791;53.108;18.326;2023-06-26T15:43:26;37.40;44.70
21267;DHT22;10791;53.108;18.326;2023-06-26T15:48:29;37.80;43.50
21267;DHT22;10791;53.108;18.326;2023-06-26T15:53:37;37.70;43.40
21267;DHT22;10791;53.108;18.326;2023-06-26T15:58:41;36.80;44.70
21267;DHT22;10791;53.108;18.326;2023-06-26T16:03:45;36.10;44.40
21267;DHT22;10791;53.108;18.326;2023-06-26T16:08:48;35.40;44.10
21267;DHT22;10791;53.108;18.326;2023-06-26T16:13:52;34.20;45.20
21267;DHT22;10791;53.108;18.326;2023-06-26T16:18:58;34.00;46.60
21267;DHT22;10791;53.108;18.326;2023-06-26T16:24:01;33.60;47.10
21267;DHT22;10791;53.108;18.326;2023-06-26T16:29:05;33.20;46.70
21267;DHT22;10791;53.108;18.326;2023-06-26T16:34:08;32.70;47.90
21267;DHT22;10791;53.108;18.326;2023-06-26T16:39:12;31.90;46.30
21267;DHT22;10791;53.108;18.326;2023-06-26T16:44:19;31.30;49.20
21267;DHT22;10791;53.108;18.326;2023-06-26T16:49:23;30.80;49.40
21267;DHT22;10791;53.108;18.326;2023-06-26T16:54:26;30.60;49.20
21267;DHT22;10791;53.108;18.326;2023-06-26T16:59:30;30.80;49.80
21267;DHT22;10791;53.108;18.326;2023-06-26T17:04:34;30.70;48.80
21267;DHT22;10791;53.108;18.326;2023-06-26T17:09:37;30.20;49.60
21267;DHT22;10791;53.108;18.326;2023-06-26T17:14:40;29.50;50.40
21267;DHT22;10791;53.108;18.326;2023-06-26T17:19:45;29.20;50.50
21267;DHT22;10791;53.108;18.326;2023-06-26T17:24:48;28.90;51.10
21267;DHT22;10791;53.108;18.326;2023-06-26T17:29:51;28.70;52.10
21267;DHT22;10791;53.108;18.326;2023-06-26T17:34:55;28.50;52.80
21267;DHT22;10791;53.108;18.326;2023-06-26T17:39:59;28.20;52.60
21267;DHT22;10791;53.108;18.326;2023-06-26T17:45:04;28.00;51.80
21267;DHT22;10791;53.108;18.326;2023-06-26T17:50:08;27.80;51.70
21267;DHT22;10791;53.108;18.326;2023-06-26T17:55:12;27.60;51.50
21267;DHT22;10791;53.108;18.326;2023-06-26T18:00:16;27.40;51.60
21267;DHT22;10791;53.108;18.326;2023-06-26T18:05:20;27.30;51.60
21267;DHT22;10791;53.108;18.326;2023-06-26T18:10:24;27.20;52.10
21267;DHT22;10791;53.108;18.326;2023-06-26T18:15:30;27.10;52.80
21267;DHT22;10791;53.108;18.326;2023-06-26T18:20:34;27.00;53.70
21267;DHT22;10791;53.108;18.326;2023-06-26T18:25:38;26.90;54.40
21267;DHT22;10791;53.108;18.326;2023-06-26T18:30:41;26.80;55.20
21267;DHT22;10791;53.108;18.326;2023-06-26T18:35:45;26.70;55.50
21267;DHT22;10791;53.108;18.326;2023-06-26T18:40:49;26.50;60.10
21267;DHT22;10791;53.108;18.326;2023-06-26T18:45:54;26.20;61.90
21267;DHT22;10791;53.108;18.326;2023-06-26T18:50:57;25.90;64.80
21267;DHT22;10791;53.108;18.326;2023-06-26T18:56:02;25.60;66.30
21267;DHT22;10791;53.108;18.326;2023-06-26T19:01:06;25.50;67.40
21267;DHT22;10791;53.108;18.326;2023-06-26T19:06:10;25.30;67.80
21267;DHT22;10791;53.108;18.326;2023-06-26T19:11:14;25.10;69.70
21267;DHT22;10791;53.108;18.326;2023-06-26T19:16:18;24.90;70.60
21267;DHT22;10791;53.108;18.326;2023-06-26T19:21:22;24.70;71.90
21267;DHT22;10791;53.108;18.326;2023-06-26T19:26:25;24.50;74.20
21267;DHT22;10791;53.108;18.326;2023-06-26T19:31:30;24.40;75.60
21267;DHT22;10791;53.108;18.326;2023-06-26T19:36:34;24.20;77.00
21267;DHT22;10791;53.108;18.326;2023-06-26T19:41:38;24.00;77.30
21267;DHT22;10791;53.108;18.326;2023-06-26T19:46:42;23.80;77.90
21267;DHT22;10791;53.108;18.326;2023-06-26T19:51:46;23.80;79.30
21267;DHT22;10791;53.108;18.326;2023-06-26T19:56:51;23.70;79.90
21267;DHT22;10791;53.108;18.326;2023-06-26T20:01:55;23.60;81.20
21267;DHT22;10791;53.108;18.326;2023-06-26T20:07:00;23.50;83.40
21267;DHT22;10791;53.108;18.326;2023-06-26T20:12:09;23.50;82.60
21267;DHT22;10791;53.108;18.326;2023-06-26T20:17:13;23.40;81.70
21267;DHT22;10791;53.108;18.326;2023-06-26T20:22:18;23.40;80.00
21267;DHT22;10791;53.108;18.326;2023-06-26T20:27:22;23.20;85.60
21267;DHT22;10791;53.108;18.326;2023-06-26T20:32:27;22.90;90.70
21267;DHT22;10791;53.108;18.326;2023-06-26T20:37:32;22.30;99.90
21267;DHT22;10791;53.108;18.326;2023-06-26T20:42:36;21.50;99.90
21267;DHT22;10791;53.108;18.326;2023-06-26T20:47:40;20.90;99.90
21267;DHT22;10791;53.108;18.326;2023-06-26T20:52:46;20.40;99.90
21267;DHT22;10791;53.108;18.326;2023-06-26T20:57:52;20.10;99.90
21267;DHT22;10791;53.108;18.326;2023-06-26T21:02:55;19.90;99.90
21267;DHT22;10791;53.108;18.326;2023-06-26T21:07:59;19.80;99.90
21267;DHT22;10791;53.108;18.326;2023-06-26T21:13:03;19.80;99.90
21267;DHT22;10791;53.108;18.326;2023-06-26T21:18:08;19.70;99.90
21267;DHT22;10791;53.108;18.326;2023-06-26T21:23:13;19.70;99.90
21267;DHT22;10791;53.108;18.326;2023-06-26T21:28:20;19.70;99.90
21267;DHT22;10791;53.108;18.326;2023-06-26T21:33:23;19.60;99.90
21267;DHT22;10791;53.108;18.326;2023-06-26T21:38:27;19.50;99.90
21267;DHT22;10791;53.108;18.326;2023-06-26T21:43:31;19.50;99.90
21267;DHT22;10791;53.108;18.326;2023-06-26T21:48:34;19.60;99.90
21267;DHT22;10791;53.108;18.326;2023-06-26T21:53:38;19.70;99.90
21267;DHT22;10791;53.108;18.326;2023-06-26T21:58:42;19.80;99.90
21267;DHT22;10791;53.108;18.326;2023-06-26T22:03:46;19.80;99.90
21267;DHT22;10791;53.108;18.326;2023-06-26T22:08:49;19.80;99.90
21267;DHT22;10791;53.108;18.326;2023-06-26T22:13:53;19.80;99.90
21267;DHT22;10791;53.108;18.326;2023-06-26T22:18:56;19.70;99.90
21267;DHT22;10791;53.108;18.326;2023-06-26T22:23:59;19.60;99.90
21267;DHT22;10791;53.108;18.326;2023-06-26T22:29:03;19.60;99.90
21267;DHT22;10791;53.108;18.326;2023-06-26T22:34:06;19.60;99.90
21267;DHT22;10791;53.108;18.326;2023-06-26T22:39:10;19.60;99.90
21267;DHT22;10791;53.108;18.326;2023-06-26T22:44:13;19.60;99.90
21267;DHT22;10791;53.108;18.326;2023-06-26T22:49:17;19.40;99.90
21267;DHT22;10791;53.108;18.326;2023-06-26T22:54:21;19.30;99.90
21267;DHT22;10791;53.108;18.326;2023-06-26T22:59:26;19.40;99.90
21267;DHT22;10791;53.108;18.326;2023-06-26T23:04:29;19.40;99.90
21267;DHT22;10791;53.108;18.326;2023-06-26T23:09:32;19.40;99.90
21267;DHT22;10791;53.108;18.326;2023-06-26T23:14:36;19.40;99.90
21267;DHT22;10791;53.108;18.326;2023-06-26T23:19:40;19.40;99.90
21267;DHT22;10791;53.108;18.326;2023-06-26T23:24:43;19.50;99.90
21267;DHT22;10791;53.108;18.326;2023-06-26T23:29:47;19.50;99.90
21267;DHT22;10791;53.108;18.326;2023-06-26T23:34:50;19.50;99.90
21267;DHT22;10791;53.108;18.326;2023-06-26T23:39:53;19.40;99.90
21267;DHT22;10791;53.108;18.326;2023-06-26T23:44:57;19.40;99.90
21267;DHT22;10791;53.108;18.326;2023-06-26T23:50:02;19.40;99.90
21267;DHT22;10791;53.108;18.326;2023-06-26T23:55:09;19.30;99.90
